createdAt,value
2023-01-04T00:00:10.317Z,96717.84
2023-01-04T00:02:38.395Z,96712.06
2023-01-04T00:05:07.127Z,96713.09
2023-01-04T00:07:36.325Z,96709.78
2023-01-04T00:10:04.562Z,96706.47
2023-01-04T00:12:32.435Z,96705.25
2023-01-04T00:15:00.341Z,96700.88
2023-01-04T00:17:28.282Z,96690.56
2023-01-04T00:19:56.088Z,96695.09
2023-01-04T00:22:23.931Z,96686.03
2023-01-04T00:24:53.272Z,96693.41
2023-01-04T00:27:21.113Z,96703.25
2023-01-04T00:29:48.956Z,96704.50
2023-01-04T00:32:16.845Z,96698.50
2023-01-04T00:34:44.683Z,96694.78
2023-01-04T00:37:12.485Z,96694.13
2023-01-04T00:39:40.378Z,96700.28
2023-01-04T00:42:09.520Z,96697.78
2023-01-04T00:44:37.408Z,96696.56
2023-01-04T00:47:05.805Z,96689.31
2023-01-04T00:49:34.110Z,96694.28
2023-01-04T00:52:02.296Z,96686.22
2023-01-04T00:54:30.114Z,96678.78
2023-01-04T00:56:59.054Z,96687.81
2023-01-04T00:59:28.619Z,96674.63
2023-01-04T01:01:56.504Z,96673.81
2023-01-04T01:04:25.418Z,96669.88
2023-01-04T01:06:53.864Z,96671.91
2023-01-04T01:09:23.921Z,96662.03
2023-01-04T01:11:52.830Z,96668.16
2023-01-04T01:14:22.539Z,96662.19
2023-01-04T01:16:59.707Z,96666.91
2023-01-04T01:19:29.187Z,96676.31
2023-01-04T01:21:58.845Z,96668.31
2023-01-04T01:24:27.062Z,96661.53
2023-01-04T01:26:55.532Z,96674.91
2023-01-04T01:29:23.315Z,96668.56
2023-01-04T01:31:52.800Z,96670.06
2023-01-04T01:34:20.722Z,96666.25
2023-01-04T01:36:48.618Z,96668.13
2023-01-04T01:39:16.408Z,96676.53
2023-01-04T01:41:44.426Z,96675.75
2023-01-04T01:44:45.340Z,96681.59
2023-01-04T01:47:18.352Z,96690.00
2023-01-04T01:49:48.174Z,96697.16
2023-01-04T01:52:22.543Z,96690.34
2023-01-04T01:54:56.876Z,96682.28
2023-01-04T01:57:28.574Z,96683.72
2023-01-04T01:59:59.802Z,96682.28
2023-01-04T02:02:29.022Z,96686.50
2023-01-04T02:04:57.584Z,96691.13
2023-01-04T02:07:28.421Z,96694.50
2023-01-04T02:09:57.059Z,96690.22
2023-01-04T02:12:25.012Z,96689.56
2023-01-04T02:14:53.125Z,96696.78
2023-01-04T02:17:33.199Z,96687.47
2023-01-04T02:20:31.720Z,96689.75
2023-01-04T02:23:28.649Z,96689.94
2023-01-04T02:26:29.707Z,96682.72
2023-01-04T02:29:37.527Z,96680.25
2023-01-04T02:32:13.757Z,96676.94
2023-01-04T02:34:46.685Z,96664.38
2023-01-04T02:37:21.901Z,96655.53
2023-01-04T02:39:58.484Z,96675.38
2023-01-04T02:42:47.292Z,96679.88
2023-01-04T02:45:18.454Z,96673.31
2023-01-04T02:48:05.310Z,96674.72
2023-01-04T02:50:37.495Z,96677.44
2023-01-04T02:53:09.884Z,96672.47
2023-01-04T02:55:46.443Z,96673.50
2023-01-04T02:58:29.331Z,96670.22
2023-01-04T03:01:26.636Z,96650.00
2023-01-04T03:04:27.560Z,96659.50
2023-01-04T03:07:01.883Z,96654.16
2023-01-04T03:09:34.502Z,96647.75
2023-01-04T03:12:24.610Z,96644.03
2023-01-04T03:15:00.336Z,96642.78
2023-01-04T03:17:32.923Z,96633.50
2023-01-04T03:20:02.908Z,96637.59
2023-01-04T03:22:55.011Z,96635.97
2023-01-04T03:25:44.904Z,96639.59
2023-01-04T03:28:33.735Z,96644.50
2023-01-04T03:31:25.306Z,96644.44
2023-01-04T03:34:11.049Z,96646.28
2023-01-04T03:37:01.392Z,96648.97
2023-01-04T03:39:57.639Z,96643.44
2023-01-04T03:42:53.143Z,96630.06
2023-01-04T03:45:42.111Z,96628.81
2023-01-04T03:48:31.662Z,96634.09
2023-01-04T03:51:08.328Z,96629.97
2023-01-04T03:53:45.924Z,96639.16
2023-01-04T03:56:15.534Z,96641.47
2023-01-04T03:58:43.371Z,96623.38
2023-01-04T04:01:11.738Z,96619.28
2023-01-04T04:03:57.374Z,96622.69
2023-01-04T04:06:42.475Z,96617.91
2023-01-04T04:09:11.664Z,96616.19
2023-01-04T04:11:39.558Z,96612.19
2023-01-04T04:14:07.393Z,96612.19
2023-01-04T04:16:35.360Z,96606.59
2023-01-04T04:19:08.600Z,96604.63
2023-01-04T04:21:36.992Z,96601.81
2023-01-04T04:24:05.141Z,96601.97
2023-01-04T04:26:34.328Z,96604.38
2023-01-04T04:29:02.189Z,96605.84
2023-01-04T04:31:30.108Z,96604.66
2023-01-04T04:33:57.946Z,96607.34
2023-01-04T04:36:25.689Z,96604.84
2023-01-04T04:38:53.407Z,96604.03
2023-01-04T04:41:38.463Z,96599.09
2023-01-04T04:44:08.678Z,96593.72
2023-01-04T04:46:36.570Z,96582.59
2023-01-04T04:49:05.155Z,96580.50
2023-01-04T04:51:33.468Z,96582.28
2023-01-04T04:54:01.419Z,96581.41
2023-01-04T04:56:29.549Z,96582.97
2023-01-04T04:58:57.756Z,96568.56
2023-01-04T05:01:26.975Z,96566.50
2023-01-04T05:03:54.856Z,96569.16
2023-01-04T05:06:22.628Z,96568.94
2023-01-04T05:08:50.476Z,96570.16
2023-01-04T05:11:38.253Z,96576.94
2023-01-04T05:14:05.182Z,96572.63
2023-01-04T05:16:34.324Z,96580.19
2023-01-04T05:19:02.218Z,96573.97
2023-01-04T05:21:29.985Z,96568.81
2023-01-04T05:23:57.730Z,96572.06
2023-01-04T05:26:25.455Z,96567.31
2023-01-04T05:28:54.234Z,96566.47
2023-01-04T05:31:21.997Z,96566.28
2023-01-04T05:33:51.219Z,96566.91
2023-01-04T05:36:19.022Z,96570.41
2023-01-04T05:38:46.765Z,96568.94
2023-01-04T05:41:28.645Z,96569.97
2023-01-04T05:43:56.771Z,96571.34
2023-01-04T05:46:24.716Z,96579.03
2023-01-04T05:48:53.935Z,96585.66
2023-01-04T05:51:21.689Z,96579.56
2023-01-04T05:53:49.431Z,96579.56
2023-01-04T05:56:17.168Z,96579.47
2023-01-04T05:58:44.937Z,96581.41
2023-01-04T06:01:12.782Z,96576.16
2023-01-04T06:03:40.817Z,96579.06
2023-01-04T06:06:10.133Z,96578.06
2023-01-04T06:08:37.876Z,96589.22
2023-01-04T06:11:05.897Z,96587.19
2023-01-04T06:13:33.715Z,96591.50
2023-01-04T06:16:01.417Z,96595.44
2023-01-04T06:18:29.152Z,96601.19
2023-01-04T06:20:56.921Z,96597.06
2023-01-04T06:23:26.084Z,96596.41
2023-01-04T06:25:53.887Z,96589.41
2023-01-04T06:28:21.611Z,96584.06
2023-01-04T06:30:49.445Z,96595.16
2023-01-04T06:33:17.347Z,96590.63
2023-01-04T06:35:45.148Z,96590.41
2023-01-04T06:38:13.034Z,96593.66
2023-01-04T06:40:42.244Z,96586.03
2023-01-04T06:43:10.055Z,96580.47
2023-01-04T06:45:37.907Z,96571.38
2023-01-04T06:48:09.189Z,96562.75
2023-01-04T06:50:37.608Z,96558.06
2023-01-04T06:53:05.395Z,96562.06
2023-01-04T06:55:33.234Z,96561.63
2023-01-04T06:58:02.420Z,96561.41
2023-01-04T07:00:30.388Z,96562.00
2023-01-04T07:03:14.632Z,96552.72
2023-01-04T07:05:43.759Z,96550.84
2023-01-04T07:08:12.300Z,96562.34
2023-01-04T07:10:40.661Z,96559.84
2023-01-04T07:13:09.877Z,96564.13
2023-01-04T07:15:40.642Z,96554.84
2023-01-04T07:18:09.550Z,96554.38
2023-01-04T07:20:37.518Z,96553.13
2023-01-04T07:23:06.225Z,96570.78
2023-01-04T07:25:34.119Z,96567.88
2023-01-04T07:28:02.517Z,96565.19
2023-01-04T07:30:31.871Z,96558.00
2023-01-04T07:32:59.736Z,96559.84
2023-01-04T07:35:27.628Z,96560.63
2023-01-04T07:37:58.593Z,96562.69
2023-01-04T07:40:27.746Z,96556.09
2023-01-04T07:42:57.969Z,96560.88
2023-01-04T07:45:26.622Z,96569.56
2023-01-04T07:47:55.990Z,96562.47
2023-01-04T07:50:23.838Z,96565.00
2023-01-04T07:52:51.864Z,96551.66
2023-01-04T07:55:19.773Z,96546.16
2023-01-04T07:57:47.780Z,96549.47
2023-01-04T08:00:16.404Z,96543.94
2023-01-04T08:02:44.549Z,96540.84
2023-01-04T08:05:14.161Z,96541.25
2023-01-04T08:07:42.131Z,96538.13
2023-01-04T08:10:10.351Z,96513.13
2023-01-04T08:12:38.389Z,96527.47
2023-01-04T08:15:07.202Z,96518.53
2023-01-04T08:17:35.389Z,96513.88
2023-01-04T08:20:03.366Z,96512.38
2023-01-04T08:22:32.703Z,96515.13
2023-01-04T08:25:00.711Z,96522.03
2023-01-04T08:27:28.511Z,96523.41
2023-01-04T08:29:56.532Z,96522.47
2023-01-04T08:32:24.349Z,96514.53
2023-01-04T08:34:53.625Z,96518.16
2023-01-04T08:37:21.835Z,96511.88
2023-01-04T08:39:51.420Z,96510.69
2023-01-04T08:42:25.100Z,96512.44
2023-01-04T08:45:01.355Z,96505.22
2023-01-04T08:47:30.373Z,96504.91
2023-01-04T08:50:01.168Z,96500.34
2023-01-04T08:52:34.444Z,96496.41
2023-01-04T08:55:10.109Z,96499.91
2023-01-04T08:57:40.518Z,96492.84
2023-01-04T09:00:10.696Z,96498.75
2023-01-04T09:02:38.876Z,96495.28
2023-01-04T09:05:08.339Z,96497.03
2023-01-04T09:07:36.577Z,96488.59
2023-01-04T09:10:06.783Z,96484.50
2023-01-04T09:12:34.860Z,96490.47
2023-01-04T09:15:02.819Z,96490.81
2023-01-04T09:17:30.758Z,96477.94
2023-01-04T09:19:58.709Z,96472.22
2023-01-04T09:22:26.721Z,96476.91
2023-01-04T09:24:55.334Z,96481.59
2023-01-04T09:27:24.796Z,96476.78
2023-01-04T09:29:52.788Z,96463.19
2023-01-04T09:32:20.773Z,96471.59
2023-01-04T09:34:48.769Z,96463.94
2023-01-04T09:37:17.266Z,96461.00
2023-01-04T09:39:45.836Z,96454.59
2023-01-04T09:42:22.368Z,96452.25
2023-01-04T09:45:23.011Z,96449.63
2023-01-04T09:47:51.037Z,96438.06
2023-01-04T09:50:23.262Z,96439.53
2023-01-04T09:52:58.839Z,96431.78
2023-01-04T09:55:39.082Z,96435.28
2023-01-04T09:58:25.714Z,96436.34
2023-01-04T10:01:02.594Z,96434.78
2023-01-04T10:03:33.685Z,96426.94
2023-01-04T10:06:02.428Z,96430.75
2023-01-04T10:08:32.359Z,96433.78
2023-01-04T10:11:17.080Z,96430.00
2023-01-04T10:14:13.914Z,96426.19
2023-01-04T10:17:14.433Z,96420.88
2023-01-04T10:21:18.696Z,96408.50
2023-01-04T10:22:59.450Z,96414.63
2023-01-04T10:25:32.623Z,96412.97
2023-01-04T10:28:22.825Z,96405.00
2023-01-04T10:31:40.370Z,96407.16
2023-01-04T10:34:02.226Z,96395.13
2023-01-04T10:36:32.856Z,96392.03
2023-01-04T10:39:03.321Z,96373.75
2023-01-04T10:41:38.186Z,96370.66
2023-01-04T10:44:14.176Z,96358.81
2023-01-04T10:46:48.138Z,96364.59
2023-01-04T10:49:28.059Z,96358.72
2023-01-04T10:52:01.317Z,96358.69
2023-01-04T10:54:34.814Z,96356.41
2023-01-04T10:57:09.927Z,96359.88
2023-01-04T10:59:42.590Z,96347.16
2023-01-04T11:02:19.856Z,96351.28
2023-01-04T11:04:57.209Z,96341.78
2023-01-04T11:07:29.530Z,96345.47
2023-01-04T11:10:04.263Z,96342.53
2023-01-04T11:12:32.828Z,96346.50
2023-01-04T11:15:00.758Z,96335.78
2023-01-04T11:17:29.722Z,96329.13
2023-01-04T11:19:59.291Z,96321.00
2023-01-04T11:22:30.689Z,96318.34
2023-01-04T11:27:55.763Z,96330.50
2023-01-04T11:30:26.149Z,96323.19
2023-01-04T11:32:59.759Z,96318.28
2023-01-04T11:35:44.058Z,96309.66
2023-01-04T11:38:16.282Z,96301.78
2023-01-04T11:40:56.603Z,96290.72
2023-01-04T11:43:25.807Z,96290.44
2023-01-04T11:46:00.431Z,96287.00
2023-01-04T11:48:41.283Z,96285.94
2023-01-04T11:51:21.325Z,96293.03
2023-01-04T11:53:59.447Z,96286.88
2023-01-04T11:56:29.447Z,96275.59
2023-01-04T11:59:06.881Z,96269.16
2023-01-04T12:01:36.587Z,96260.88
2023-01-04T12:04:10.899Z,96256.06
2023-01-04T12:06:46.288Z,96247.16
2023-01-04T12:09:16.303Z,96252.06
2023-01-04T12:11:50.371Z,96242.28
2023-01-04T12:14:22.960Z,96239.84
2023-01-04T12:17:04.569Z,96243.88
2023-01-04T12:19:33.139Z,96245.00
2023-01-04T12:22:04.672Z,96238.53
2023-01-04T12:24:35.295Z,96227.72
2023-01-04T12:27:04.621Z,96231.53
2023-01-04T12:29:57.882Z,96231.81
2023-01-04T12:32:47.425Z,96220.78
2023-01-04T12:36:01.123Z,96227.81
2023-01-04T12:39:05.393Z,96221.31
2023-01-04T12:42:19.732Z,96211.28
2023-01-04T12:45:23.906Z,96205.56
2023-01-04T12:48:11.492Z,96184.13
2023-01-04T12:51:31.577Z,96187.13
2023-01-04T12:54:05.562Z,96188.53
2023-01-04T12:57:23.906Z,96183.09
2023-01-04T12:59:56.794Z,96183.09
2023-01-04T13:02:26.746Z,96180.69
2023-01-04T13:05:25.695Z,96177.16
2023-01-04T13:07:48.189Z,96184.53
2023-01-04T13:10:30.132Z,96186.72
2023-01-04T13:13:33.515Z,96183.72
2023-01-04T13:16:17.059Z,96170.69
2023-01-04T13:18:50.334Z,96172.34
2023-01-04T13:21:25.221Z,96160.41
2023-01-04T13:23:55.578Z,96168.03
2023-01-04T13:26:48.492Z,96176.19
2023-01-04T13:29:19.487Z,96171.03
2023-01-04T13:31:54.396Z,96176.97
2023-01-04T13:34:26.155Z,96183.81
2023-01-04T13:37:09.948Z,96170.75
2023-01-04T13:39:39.788Z,96160.69
2023-01-04T13:42:17.408Z,96164.78
2023-01-04T13:45:33.008Z,96159.88
2023-01-04T13:48:04.329Z,96160.72
2023-01-04T13:50:40.127Z,96165.31
2023-01-04T13:53:18.893Z,96164.78
2023-01-04T13:55:51.639Z,96168.88
2023-01-04T13:58:22.389Z,96167.50
2023-01-04T14:00:55.321Z,96152.56
2023-01-04T14:03:35.833Z,96149.56
2023-01-04T14:06:20.682Z,96151.47
2023-01-04T14:09:05.975Z,96146.06
2023-01-04T14:12:09.909Z,96146.84
2023-01-04T14:14:50.837Z,96150.13
2023-01-04T14:17:32.026Z,96145.75
2023-01-04T14:20:01.882Z,96150.13
2023-01-04T14:22:42.946Z,96154.19
2023-01-04T14:25:56.612Z,96157.72
2023-01-04T14:28:35.236Z,96156.09
2023-01-04T14:31:32.331Z,96147.66
2023-01-04T14:34:00.429Z,96135.16
2023-01-04T14:36:30.631Z,96145.22
2023-01-04T14:39:02.159Z,96149.00
2023-01-04T14:41:34.062Z,96151.47
2023-01-04T14:44:11.586Z,96150.13
2023-01-04T14:46:43.404Z,96141.41
2023-01-04T14:49:11.421Z,96138.16
2023-01-04T14:51:42.555Z,96137.06
2023-01-04T14:54:13.250Z,96138.72
2023-01-04T14:56:43.391Z,96137.63
2023-01-04T14:59:11.337Z,96133.00
2023-01-04T15:01:41.140Z,96127.31
2023-01-04T15:04:09.011Z,96112.63
2023-01-04T15:06:36.982Z,96125.38
2023-01-04T15:09:04.742Z,96100.97
2023-01-04T15:11:32.861Z,96094.16
2023-01-04T15:14:00.528Z,96084.38
2023-01-04T15:16:28.274Z,96096.59
2023-01-04T15:18:57.367Z,96094.41
2023-01-04T15:21:25.060Z,96085.19
2023-01-04T15:23:52.723Z,96097.13
2023-01-04T15:26:20.396Z,96093.88
2023-01-04T15:28:48.120Z,96092.50
2023-01-04T15:31:15.983Z,96082.75
2023-01-04T15:33:43.837Z,96095.53
2023-01-04T15:36:21.653Z,96090.09
2023-01-04T15:38:54.950Z,96091.19
2023-01-04T15:41:40.201Z,96097.69
2023-01-04T15:44:11.283Z,96099.84
2023-01-04T15:46:39.425Z,96100.97
2023-01-04T15:49:09.419Z,96096.31
2023-01-04T15:51:41.080Z,96082.75
2023-01-04T15:54:09.094Z,96087.91
2023-01-04T15:56:36.773Z,96088.97
2023-01-04T15:59:04.714Z,96088.16
2023-01-04T16:01:32.553Z,96085.72
2023-01-04T16:04:00.354Z,96071.31
2023-01-04T16:06:28.034Z,96083.56
2023-01-04T16:08:58.874Z,96060.19
2023-01-04T16:11:26.886Z,96072.16
2023-01-04T16:13:54.953Z,96061.56
2023-01-04T16:16:24.941Z,96053.97
2023-01-04T16:18:54.880Z,96059.94
2023-01-04T16:21:24.788Z,96073.53
2023-01-04T16:23:58.375Z,96074.59
2023-01-04T16:26:31.078Z,96070.53
2023-01-04T16:29:00.641Z,96067.56
2023-01-04T16:31:34.047Z,96072.44
2023-01-04T16:34:02.577Z,96078.66
2023-01-04T16:36:30.280Z,96071.59
2023-01-04T16:38:58.225Z,96071.91
2023-01-04T16:41:25.938Z,96084.63
2023-01-04T16:43:58.929Z,96086.84
2023-01-04T16:46:28.531Z,96056.41
2023-01-04T16:48:58.902Z,96076.75
2023-01-04T16:51:28.075Z,96064.03
2023-01-04T16:53:56.646Z,96074.34
2023-01-04T16:56:25.705Z,96065.63
2023-01-04T16:58:54.950Z,96039.31
2023-01-04T17:01:24.513Z,96075.69
2023-01-04T17:03:56.203Z,96079.75
2023-01-04T17:06:26.152Z,96079.75
2023-01-04T17:08:55.471Z,96077.84
2023-01-04T17:12:11.406Z,96069.44
2023-01-04T17:14:14.328Z,96081.94
2023-01-04T17:16:42.384Z,96065.63
2023-01-04T17:19:10.661Z,96077.03
2023-01-04T17:21:38.366Z,96076.75
2023-01-04T17:24:06.585Z,96065.34
2023-01-04T17:26:34.520Z,96078.66
2023-01-04T17:29:02.938Z,96081.13
2023-01-04T17:31:33.738Z,96079.50
2023-01-04T17:34:01.787Z,96062.66
2023-01-04T17:36:29.575Z,96066.72
2023-01-04T17:38:59.221Z,96057.50
2023-01-04T17:41:28.488Z,96058.03
2023-01-04T17:44:00.203Z,96065.34
2023-01-04T17:46:29.227Z,96047.97
2023-01-04T17:49:21.703Z,96041.75
2023-01-04T17:51:46.522Z,96044.47
2023-01-04T17:54:14.243Z,96037.69
2023-01-04T17:56:41.973Z,96041.75
2023-01-04T17:59:11.926Z,96042.28
2023-01-04T18:01:39.829Z,96043.66
2023-01-04T18:04:09.318Z,96046.09
2023-01-04T18:06:37.978Z,96051.78
2023-01-04T18:09:09.209Z,96048.00
2023-01-04T18:11:37.401Z,96049.09
2023-01-04T18:14:09.678Z,96052.88
2023-01-04T18:16:56.457Z,96051.78
2023-01-04T18:19:27.435Z,96041.22
2023-01-04T18:21:55.188Z,96049.34
2023-01-04T18:24:36.248Z,96040.66
2023-01-04T18:29:54.294Z,96035.78
2023-01-04T18:32:22.057Z,96040.13
2023-01-04T18:34:51.107Z,96045.53
2023-01-04T18:37:19.398Z,96043.66
2023-01-04T18:39:47.496Z,96034.16
2023-01-04T18:42:15.368Z,96042.28
2023-01-04T18:44:47.750Z,96033.06
2023-01-04T18:47:17.025Z,96028.72
2023-01-04T18:49:44.820Z,96036.34
2023-01-04T18:52:13.921Z,96022.78
2023-01-04T18:54:41.630Z,96026.31
2023-01-04T18:57:09.544Z,96021.41
2023-01-04T18:59:37.263Z,96011.91
2023-01-04T19:02:05.179Z,96008.09
2023-01-04T19:04:35.139Z,96009.47
2023-01-04T19:07:03.125Z,96006.47
2023-01-04T19:09:32.205Z,96008.09
2023-01-04T19:11:59.940Z,96021.66
2023-01-04T19:14:27.647Z,96014.34
2023-01-04T19:16:55.356Z,95988.28
2023-01-04T19:19:23.227Z,96018.94
2023-01-04T19:21:50.933Z,96002.13
2023-01-04T19:24:18.636Z,96005.66
2023-01-04T19:26:47.716Z,95991.81
2023-01-04T19:29:15.397Z,95983.41
2023-01-04T19:31:43.087Z,95996.97
2023-01-04T19:34:10.953Z,95978.25
2023-01-04T19:36:38.693Z,95975.81
2023-01-04T19:39:09.295Z,95967.38
2023-01-04T19:41:38.229Z,95963.59
2023-01-04T19:44:09.535Z,95941.59
2023-01-04T19:46:38.993Z,95942.38
2023-01-04T19:49:14.214Z,95950.28
2023-01-04T19:51:43.851Z,95940.25
2023-01-04T19:54:11.902Z,95953.00
2023-01-04T19:56:39.820Z,95944.00
2023-01-04T19:59:08.877Z,95942.38
2023-01-04T20:01:36.806Z,95947.53
2023-01-04T20:04:05.301Z,95948.59
2023-01-04T20:06:33.656Z,95952.41
2023-01-04T20:09:01.528Z,95949.69
2023-01-04T20:11:29.340Z,95938.84
2023-01-04T20:13:57.080Z,95948.88
2023-01-04T20:16:26.270Z,95934.19
2023-01-04T20:18:56.623Z,95947.44
2023-01-04T20:21:24.777Z,95948.25
2023-01-04T20:23:52.550Z,95948.53
2023-01-04T20:26:20.555Z,95940.31
2023-01-04T20:28:48.714Z,95954.50
2023-01-04T20:31:18.791Z,95949.28
2023-01-04T20:33:48.573Z,95939.28
2023-01-04T20:36:18.496Z,95946.56
2023-01-04T20:38:47.857Z,95924.00
2023-01-04T20:41:17.707Z,95941.59
2023-01-04T20:43:46.438Z,95948.94
2023-01-04T20:46:16.607Z,95942.69
2023-01-04T20:48:44.968Z,95941.06
2023-01-04T20:51:16.545Z,95957.34
2023-01-04T20:53:44.312Z,95942.94
2023-01-04T20:56:15.291Z,95953.78
2023-01-04T20:58:43.160Z,95956.22
2023-01-04T21:01:11.413Z,95955.63
2023-01-04T21:03:39.820Z,95957.25
2023-01-04T21:06:09.523Z,95937.38
2023-01-04T21:08:39.724Z,95941.16
2023-01-04T21:11:07.933Z,95938.75
2023-01-04T21:13:36.011Z,95947.97
2023-01-04T21:16:04.543Z,95941.16
2023-01-04T21:18:32.285Z,95945.47
2023-01-04T21:21:00.140Z,95937.31
2023-01-04T21:23:28.174Z,95933.25
2023-01-04T21:25:57.518Z,95925.34
2023-01-04T21:28:25.247Z,95908.72
2023-01-04T21:30:52.902Z,95928.84
2023-01-04T21:33:20.609Z,95935.13
2023-01-04T21:35:48.277Z,95923.97
2023-01-04T21:38:17.197Z,95922.13
2023-01-04T21:40:44.933Z,95934.38
2023-01-04T21:43:17.673Z,95940.69
2023-01-04T21:45:45.688Z,95932.56
2023-01-04T21:48:13.375Z,95932.31
2023-01-04T21:50:41.137Z,95929.88
2023-01-04T21:53:08.945Z,95923.91
2023-01-04T21:55:36.647Z,95926.09
2023-01-04T21:58:04.552Z,95924.25
2023-01-04T22:00:33.694Z,95929.97
2023-01-04T22:03:01.453Z,95949.81
2023-01-04T22:05:29.222Z,95915.38
2023-01-04T22:07:56.900Z,95926.81
2023-01-04T22:10:24.539Z,95928.97
2023-01-04T22:12:52.200Z,95937.69
2023-01-04T22:15:19.915Z,95936.31
2023-01-04T22:17:49.005Z,95937.19
2023-01-04T22:20:16.880Z,95943.44
2023-01-04T22:22:44.651Z,95941.81
2023-01-04T22:25:12.350Z,95958.69
2023-01-04T22:27:40.088Z,95943.78
2023-01-04T22:30:08.787Z,95940.81
2023-01-04T22:32:36.470Z,95951.13
2023-01-04T22:35:06.476Z,95946.78
2023-01-04T22:37:34.149Z,95948.94
2023-01-04T22:40:01.839Z,95970.41
2023-01-04T22:42:29.549Z,95967.44
2023-01-04T22:44:57.207Z,95982.31
2023-01-04T22:47:24.931Z,95978.78
2023-01-04T22:49:52.629Z,95969.28
2023-01-04T22:52:21.707Z,95984.16
2023-01-04T22:54:49.849Z,95992.03
2023-01-04T23:02:27.130Z,95981.13
2023-01-04T23:04:54.822Z,95977.66
2023-01-04T23:07:22.500Z,95983.88
2023-01-04T23:09:50.182Z,95990.16
2023-01-04T23:12:17.897Z,95983.66
2023-01-04T23:14:45.764Z,95996.66
2023-01-04T23:17:13.439Z,95983.13
2023-01-04T23:19:42.599Z,95999.97
2023-01-04T23:22:10.234Z,95975.28
2023-01-04T23:24:39.515Z,95957.66
2023-01-04T23:27:07.262Z,95961.72
2023-01-04T23:29:34.916Z,95947.91
2023-01-04T23:32:02.665Z,95940.00
2023-01-04T23:34:30.724Z,95930.78
2023-01-04T23:36:59.780Z,95913.94
2023-01-04T23:39:27.509Z,95907.41
2023-01-04T23:41:55.242Z,95897.91
2023-01-04T23:44:24.845Z,95929.38
2023-01-04T23:46:54.605Z,95910.88
2023-01-04T23:49:23.526Z,95901.66
2023-01-04T23:51:51.781Z,95901.09
2023-01-04T23:54:21.295Z,95907.63
2023-01-04T23:56:49.008Z,95903.00
2023-01-04T23:59:16.775Z,95907.06
